TimeEST,TemperatureF,Dew PointF,Humidity,Sea Level PressureIn,VisibilityMPH,Wind Direction,Wind SpeedMPH,Gust SpeedMPH,PrecipitationIn,Events,Conditions,WindDirDegrees,DateUTC
12:53 AM,26.1,21.9,84,30.20,10.0,Calm,Calm,-,N/A,,Clear,0,2013-02-04 05:53:00
1:53 AM,26.1,21.0,81,30.19,10.0,Calm,Calm,-,N/A,,Clear,0,2013-02-04 06:53:00
2:53 AM,25.0,21.0,85,30.16,10.0,Calm,Calm,-,N/A,,Clear,0,2013-02-04 07:53:00
3:53 AM,24.1,19.9,84,30.15,10.0,Calm,Calm,-,N/A,,Clear,0,2013-02-04 08:53:00
6:53 AM,25.0,21.0,85,30.17,10.0,Calm,Calm,-,N/A,,Clear,0,2013-02-04 11:53:00
7:53 AM,25.0,21.0,85,30.19,7.0,Calm,Calm,-,N/A,,Clear,0,2013-02-04 12:53:00
8:53 AM,27.0,24.1,89,30.19,7.0,Calm,Calm,-,N/A,,Clear,0,2013-02-04 13:53:00
9:53 AM,30.0,25.0,82,30.19,10.0,Calm,Calm,-,N/A,,Clear,0,2013-02-04 14:53:00
10:53 AM,34.0,26.1,73,30.18,10.0,Variable,3.5,-,N/A,,Clear,0,2013-02-04 15:53:00
11:53 AM,37.0,24.1,59,30.16,10.0,Calm,Calm,-,N/A,,Clear,0,2013-02-04 16:53:00
12:53 PM,39.0,25.0,57,30.12,10.0,Calm,Calm,-,N/A,,Clear,0,2013-02-04 17:53:00
1:53 PM,44.1,25.0,47,30.07,10.0,Variable,3.5,-,N/A,,Clear,0,2013-02-04 18:53:00
2:53 PM,46.0,25.0,44,30.06,10.0,Variable,6.9,-,N/A,,Clear,0,2013-02-04 19:53:00
3:53 PM,46.9,25.0,42,30.04,10.0,WSW,4.6,-,N/A,,Clear,250,2013-02-04 20:53:00
4:53 PM,46.9,25.0,42,30.03,10.0,Calm,Calm,-,N/A,,Scattered Clouds,0,2013-02-04 21:53:00
5:53 PM,45.0,25.0,46,30.02,10.0,Calm,Calm,-,N/A,,Partly Cloudy,0,2013-02-04 22:53:00
6:53 PM,43.0,26.1,51,30.02,10.0,Calm,Calm,-,N/A,,Partly Cloudy,0,2013-02-04 23:53:00
7:53 PM,39.9,28.0,63,30.03,10.0,Calm,Calm,-,N/A,,Mostly Cloudy,0,2013-02-05 00:53:00
8:53 PM,41.0,28.0,60,30.03,10.0,Calm,Calm,-,N/A,,Overcast,0,2013-02-05 01:53:00
9:53 PM,42.1,28.0,58,30.03,10.0,SW,3.5,-,N/A,,Overcast,220,2013-02-05 02:53:00
10:53 PM,42.1,28.0,58,30.01,10.0,Calm,Calm,-,N/A,,Overcast,0,2013-02-05 03:53:00
11:53 PM,42.1,28.0,58,30.00,10.0,Calm,Calm,-,N/A,,Overcast,0,2013-02-05 04:53:00